sensor_id;sensor_type;location;lat;lon;timestamp;temperature;humidity
3921;DHT22;1975;49.356;6.816;2023-10-13T00:00:38;16.30;99.90
3921;DHT22;1975;49.356;6.816;2023-10-13T00:03:08;16.30;99.90
3921;DHT22;1975;49.356;6.816;2023-10-13T00:05:40;16.30;99.90
3921;DHT22;1975;49.356;6.816;2023-10-13T00:08:08;16.30;99.90
3921;DHT22;1975;49.356;6.816;2023-10-13T00:10:33;16.30;99.90
3921;DHT22;1975;49.356;6.816;2023-10-13T00:12:59;16.30;99.90
3921;DHT22;1975;49.356;6.816;2023-10-13T00:15:45;16.20;99.90
3921;DHT22;1975;49.356;6.816;2023-10-13T00:18:27;16.20;99.90
3921;DHT22;1975;49.356;6.816;2023-10-13T00:20:58;16.30;99.90
3921;DHT22;1975;49.356;6.816;2023-10-13T00:23:24;16.30;99.90
3921;DHT22;1975;49.356;6.816;2023-10-13T00:25:52;16.30;99.90
3921;DHT22;1975;49.356;6.816;2023-10-13T00:28:28;16.20;99.90
3921;DHT22;1975;49.356;6.816;2023-10-13T00:31:01;16.30;99.90
3921;DHT22;1975;49.356;6.816;2023-10-13T00:33:38;16.30;99.90
3921;DHT22;1975;49.356;6.816;2023-10-13T00:36:05;16.30;99.90
3921;DHT22;1975;49.356;6.816;2023-10-13T00:38:31;16.20;99.90
3921;DHT22;1975;49.356;6.816;2023-10-13T00:40:57;16.20;99.90
3921;DHT22;1975;49.356;6.816;2023-10-13T00:43:43;16.20;99.90
3921;DHT22;1975;49.356;6.816;2023-10-13T00:46:09;16.20;99.90
3921;DHT22;1975;49.356;6.816;2023-10-13T00:48:38;16.20;99.90
3921;DHT22;1975;49.356;6.816;2023-10-13T00:51:09;16.20;99.90
3921;DHT22;1975;49.356;6.816;2023-10-13T00:53:58;16.20;99.90
3921;DHT22;1975;49.356;6.816;2023-10-13T00:56:25;16.20;99.90
3921;DHT22;1975;49.356;6.816;2023-10-13T00:58:54;16.20;99.90
3921;DHT22;1975;49.356;6.816;2023-10-13T01:01:22;16.20;99.90
3921;DHT22;1975;49.356;6.816;2023-10-13T01:03:54;16.20;99.90
3921;DHT22;1975;49.356;6.816;2023-10-13T01:06:29;16.20;99.90
3921;DHT22;1975;49.356;6.816;2023-10-13T01:08:58;16.20;99.90
3921;DHT22;1975;49.356;6.816;2023-10-13T01:11:25;16.20;99.90
3921;DHT22;1975;49.356;6.816;2023-10-13T01:13:52;16.20;99.90
3921;DHT22;1975;49.356;6.816;2023-10-13T01:16:19;16.20;99.90
3921;DHT22;1975;49.356;6.816;2023-10-13T01:18:49;16.20;99.90
3921;DHT22;1975;49.356;6.816;2023-10-13T01:21:15;16.20;99.90
3921;DHT22;1975;49.356;6.816;2023-10-13T01:23:44;16.10;99.90
3921;DHT22;1975;49.356;6.816;2023-10-13T01:26:12;16.20;99.90
3921;DHT22;1975;49.356;6.816;2023-10-13T01:28:38;16.10;99.90
3921;DHT22;1975;49.356;6.816;2023-10-13T01:31:12;16.10;99.90
3921;DHT22;1975;49.356;6.816;2023-10-13T01:33:52;16.10;99.90
3921;DHT22;1975;49.356;6.816;2023-10-13T01:36:22;16.10;99.90
3921;DHT22;1975;49.356;6.816;2023-10-13T01:38:48;16.10;99.90
3921;DHT22;1975;49.356;6.816;2023-10-13T01:41:15;16.10;99.90
3921;DHT22;1975;49.356;6.816;2023-10-13T01:43:41;16.10;99.90
3921;DHT22;1975;49.356;6.816;2023-10-13T01:46:06;16.10;99.90
3921;DHT22;1975;49.356;6.816;2023-10-13T01:48:34;16.10;99.90
3921;DHT22;1975;49.356;6.816;2023-10-13T01:51:04;16.10;99.90
3921;DHT22;1975;49.356;6.816;2023-10-13T01:53:31;16.10;99.90
3921;DHT22;1975;49.356;6.816;2023-10-13T01:55:56;16.10;99.90
3921;DHT22;1975;49.356;6.816;2023-10-13T01:58:22;16.10;99.90
3921;DHT22;1975;49.356;6.816;2023-10-13T02:00:48;16.10;99.90
3921;DHT22;1975;49.356;6.816;2023-10-13T02:03:14;16.10;99.90
3921;DHT22;1975;49.356;6.816;2023-10-13T02:05:43;16.10;99.90
3921;DHT22;1975;49.356;6.816;2023-10-13T02:08:18;16.10;99.90
3921;DHT22;1975;49.356;6.816;2023-10-13T02:10:50;16.10;99.90
3921;DHT22;1975;49.356;6.816;2023-10-13T02:13:16;16.10;99.90
3921;DHT22;1975;49.356;6.816;2023-10-13T02:15:46;16.10;99.90
3921;DHT22;1975;49.356;6.816;2023-10-13T02:18:15;16.10;99.90
3921;DHT22;1975;49.356;6.816;2023-10-13T02:20:48;16.10;99.90
3921;DHT22;1975;49.356;6.816;2023-10-13T02:23:21;16.10;99.90
3921;DHT22;1975;49.356;6.816;2023-10-13T02:25:46;16.10;99.90
3921;DHT22;1975;49.356;6.816;2023-10-13T02:28:12;16.10;99.90
3921;DHT22;1975;49.356;6.816;2023-10-13T02:30:46;16.10;99.90
3921;DHT22;1975;49.356;6.816;2023-10-13T02:33:15;16.10;99.90
3921;DHT22;1975;49.356;6.816;2023-10-13T02:35:46;16.10;99.90
3921;DHT22;1975;49.356;6.816;2023-10-13T02:38:21;16.10;99.90
3921;DHT22;1975;49.356;6.816;2023-10-13T02:40:58;16.10;99.90
3921;DHT22;1975;49.356;6.816;2023-10-13T02:43:34;16.10;99.90
3921;DHT22;1975;49.356;6.816;2023-10-13T02:46:00;16.10;99.90
3921;DHT22;1975;49.356;6.816;2023-10-13T02:48:26;16.10;99.90
3921;DHT22;1975;49.356;6.816;2023-10-13T02:50:57;16.10;99.90
3921;DHT22;1975;49.356;6.816;2023-10-13T02:53:27;16.00;99.90
3921;DHT22;1975;49.356;6.816;2023-10-13T02:55:54;16.10;99.90
3921;DHT22;1975;49.356;6.816;2023-10-13T02:58:21;16.10;99.90
3921;DHT22;1975;49.356;6.816;2023-10-13T03:00:46;16.10;99.90
3921;DHT22;1975;49.356;6.816;2023-10-13T03:03:12;16.10;99.90
3921;DHT22;1975;49.356;6.816;2023-10-13T03:05:40;16.10;99.90
3921;DHT22;1975;49.356;6.816;2023-10-13T03:08:07;16.10;99.90
3921;DHT22;1975;49.356;6.816;2023-10-13T03:10:34;16.10;99.90
3921;DHT22;1975;49.356;6.816;2023-10-13T03:13:05;16.10;99.90
3921;DHT22;1975;49.356;6.816;2023-10-13T03:15:33;16.10;99.90
3921;DHT22;1975;49.356;6.816;2023-10-13T03:18:01;16.00;99.90
3921;DHT22;1975;49.356;6.816;2023-10-13T03:20:27;16.10;99.90
3921;DHT22;1975;49.356;6.816;2023-10-13T03:22:57;16.00;99.90
3921;DHT22;1975;49.356;6.816;2023-10-13T03:25:23;16.00;99.90
3921;DHT22;1975;49.356;6.816;2023-10-13T03:27:58;16.00;99.90
3921;DHT22;1975;49.356;6.816;2023-10-13T03:30:24;16.00;99.90
3921;DHT22;1975;49.356;6.816;2023-10-13T03:33:00;16.00;99.90
3921;DHT22;1975;49.356;6.816;2023-10-13T03:35:26;16.00;99.90
3921;DHT22;1975;49.356;6.816;2023-10-13T03:38:03;16.00;99.90
3921;DHT22;1975;49.356;6.816;2023-10-13T03:40:28;16.00;99.90
3921;DHT22;1975;49.356;6.816;2023-10-13T03:42:55;16.00;99.90
3921;DHT22;1975;49.356;6.816;2023-10-13T03:45:39;16.00;99.90
3921;DHT22;1975;49.356;6.816;2023-10-13T03:48:07;16.00;99.90
3921;DHT22;1975;49.356;6.816;2023-10-13T03:50:41;16.00;99.90
3921;DHT22;1975;49.356;6.816;2023-10-13T03:53:13;16.00;99.90
3921;DHT22;1975;49.356;6.816;2023-10-13T03:55:39;16.00;99.90
3921;DHT22;1975;49.356;6.816;2023-10-13T03:58:05;16.00;99.90
3921;DHT22;1975;49.356;6.816;2023-10-13T04:00:32;16.00;99.90
3921;DHT22;1975;49.356;6.816;2023-10-13T04:02:58;16.00;99.90
3921;DHT22;1975;49.356;6.816;2023-10-13T04:05:31;16.00;99.90
3921;DHT22;1975;49.356;6.816;2023-10-13T04:08:04;16.00;99.90
3921;DHT22;1975;49.356;6.816;2023-10-13T04:10:48;16.00;99.90
3921;DHT22;1975;49.356;6.816;2023-10-13T04:13:16;15.90;99.90
3921;DHT22;1975;49.356;6.816;2023-10-13T04:15:45;16.00;99.90
3921;DHT22;1975;49.356;6.816;2023-10-13T04:18:43;16.00;99.90
3921;DHT22;1975;49.356;6.816;2023-10-13T04:21:23;16.00;99.90
3921;DHT22;1975;49.356;6.816;2023-10-13T04:24:07;16.00;99.90
3921;DHT22;1975;49.356;6.816;2023-10-13T04:26:51;15.90;99.90
3921;DHT22;1975;49.356;6.816;2023-10-13T04:29:35;15.90;99.90
3921;DHT22;1975;49.356;6.816;2023-10-13T04:32:19;16.00;99.90
3921;DHT22;1975;49.356;6.816;2023-10-13T04:34:56;16.00;99.90
3921;DHT22;1975;49.356;6.816;2023-10-13T04:37:37;15.90;99.90
3921;DHT22;1975;49.356;6.816;2023-10-13T04:40:26;15.90;99.90
3921;DHT22;1975;49.356;6.816;2023-10-13T04:42:53;15.90;99.90
3921;DHT22;1975;49.356;6.816;2023-10-13T04:45:21;15.90;99.90
3921;DHT22;1975;49.356;6.816;2023-10-13T04:47:57;15.90;99.90
3921;DHT22;1975;49.356;6.816;2023-10-13T04:50:23;15.90;99.90
3921;DHT22;1975;49.356;6.816;2023-10-13T04:52:59;15.90;99.90
3921;DHT22;1975;49.356;6.816;2023-10-13T04:55:28;15.90;99.90
3921;DHT22;1975;49.356;6.816;2023-10-13T04:58:25;15.90;99.90
3921;DHT22;1975;49.356;6.816;2023-10-13T05:00:59;15.90;99.90
3921;DHT22;1975;49.356;6.816;2023-10-13T05:03:44;15.90;99.90
3921;DHT22;1975;49.356;6.816;2023-10-13T05:06:38;15.90;99.90
3921;DHT22;1975;49.356;6.816;2023-10-13T05:09:07;15.90;99.90
3921;DHT22;1975;49.356;6.816;2023-10-13T05:11:51;15.90;99.90
3921;DHT22;1975;49.356;6.816;2023-10-13T05:14:35;15.90;99.90
3921;DHT22;1975;49.356;6.816;2023-10-13T05:17:20;15.90;99.90
3921;DHT22;1975;49.356;6.816;2023-10-13T05:20:04;15.90;99.90
3921;DHT22;1975;49.356;6.816;2023-10-13T05:22:48;15.90;99.90
3921;DHT22;1975;49.356;6.816;2023-10-13T05:25:36;15.80;99.90
3921;DHT22;1975;49.356;6.816;2023-10-13T05:28:19;15.90;99.90
3921;DHT22;1975;49.356;6.816;2023-10-13T05:31:04;15.90;99.90
3921;DHT22;1975;49.356;6.816;2023-10-13T05:33:48;15.80;99.90
3921;DHT22;1975;49.356;6.816;2023-10-13T05:36:33;15.80;99.90
3921;DHT22;1975;49.356;6.816;2023-10-13T05:39:17;15.80;99.90
3921;DHT22;1975;49.356;6.816;2023-10-13T05:42:01;15.90;99.90
3921;DHT22;1975;49.356;6.816;2023-10-13T05:44:45;15.90;99.90
3921;DHT22;1975;49.356;6.816;2023-10-13T05:47:30;15.90;99.90
3921;DHT22;1975;49.356;6.816;2023-10-13T05:50:21;15.90;99.90
3921;DHT22;1975;49.356;6.816;2023-10-13T05:52:47;15.90;99.90
3921;DHT22;1975;49.356;6.816;2023-10-13T05:55:25;15.80;99.90
3921;DHT22;1975;49.356;6.816;2023-10-13T05:58:09;15.80;99.90
3921;DHT22;1975;49.356;6.816;2023-10-13T06:00:54;15.80;99.90
3921;DHT22;1975;49.356;6.816;2023-10-13T06:03:38;15.80;99.90
3921;DHT22;1975;49.356;6.816;2023-10-13T06:06:22;15.80;99.90
3921;DHT22;1975;49.356;6.816;2023-10-13T06:09:06;15.80;99.90
3921;DHT22;1975;49.356;6.816;2023-10-13T06:11:50;15.80;99.90
3921;DHT22;1975;49.356;6.816;2023-10-13T06:14:35;15.80;99.90
3921;DHT22;1975;49.356;6.816;2023-10-13T06:17:19;15.80;99.90
3921;DHT22;1975;49.356;6.816;2023-10-13T06:20:03;15.80;99.90
3921;DHT22;1975;49.356;6.816;2023-10-13T06:22:48;15.80;99.90
3921;DHT22;1975;49.356;6.816;2023-10-13T06:25:32;15.80;99.90
3921;DHT22;1975;49.356;6.816;2023-10-13T06:28:16;15.80;99.90
3921;DHT22;1975;49.356;6.816;2023-10-13T06:31:01;15.80;99.90
3921;DHT22;1975;49.356;6.816;2023-10-13T06:33:27;15.80;99.90
3921;DHT22;1975;49.356;6.816;2023-10-13T06:35:59;15.80;99.90
3921;DHT22;1975;49.356;6.816;2023-10-13T06:38:25;15.80;99.90
3921;DHT22;1975;49.356;6.816;2023-10-13T06:40:56;15.80;99.90
3921;DHT22;1975;49.356;6.816;2023-10-13T06:43:22;15.80;99.90
3921;DHT22;1975;49.356;6.816;2023-10-13T06:45:49;15.80;99.90
3921;DHT22;1975;49.356;6.816;2023-10-13T06:48:33;15.80;99.90
3921;DHT22;1975;49.356;6.816;2023-10-13T06:51:00;15.80;99.90
3921;DHT22;1975;49.356;6.816;2023-10-13T06:53:30;15.80;99.90
3921;DHT22;1975;49.356;6.816;2023-10-13T06:56:02;15.80;99.90
3921;DHT22;1975;49.356;6.816;2023-10-13T06:58:28;15.80;99.90
3921;DHT22;1975;49.356;6.816;2023-10-13T07:00:54;15.80;99.90
3921;DHT22;1975;49.356;6.816;2023-10-13T07:03:23;15.80;99.90
3921;DHT22;1975;49.356;6.816;2023-10-13T07:05:50;15.80;99.90
3921;DHT22;1975;49.356;6.816;2023-10-13T07:08:16;15.80;99.90
3921;DHT22;1975;49.356;6.816;2023-10-13T07:10:53;15.90;99.90
3921;DHT22;1975;49.356;6.816;2023-10-13T07:13:30;15.90;99.90
3921;DHT22;1975;49.356;6.816;2023-10-13T07:15:56;15.80;99.90
3921;DHT22;1975;49.356;6.816;2023-10-13T07:18:37;15.90;99.90
3921;DHT22;1975;49.356;6.816;2023-10-13T07:21:15;15.80;99.90
3921;DHT22;1975;49.356;6.816;2023-10-13T07:23:40;15.80;99.90
3921;DHT22;1975;49.356;6.816;2023-10-13T07:26:08;15.90;99.90
3921;DHT22;1975;49.356;6.816;2023-10-13T07:28:34;15.80;99.90
3921;DHT22;1975;49.356;6.816;2023-10-13T07:31:11;15.80;99.90
3921;DHT22;1975;49.356;6.816;2023-10-13T07:33:37;15.80;99.90
3921;DHT22;1975;49.356;6.816;2023-10-13T07:36:04;15.90;99.90
3921;DHT22;1975;49.356;6.816;2023-10-13T07:38:41;15.90;99.90
3921;DHT22;1975;49.356;6.816;2023-10-13T07:41:08;15.80;99.90
3921;DHT22;1975;49.356;6.816;2023-10-13T07:43:34;15.90;99.90
3921;DHT22;1975;49.356;6.816;2023-10-13T07:45:59;15.90;99.90
3921;DHT22;1975;49.356;6.816;2023-10-13T07:48:32;15.80;99.90
3921;DHT22;1975;49.356;6.816;2023-10-13T07:50:59;15.90;99.90
3921;DHT22;1975;49.356;6.816;2023-10-13T07:53:51;15.90;99.90
3921;DHT22;1975;49.356;6.816;2023-10-13T07:56:18;15.90;99.90
3921;DHT22;1975;49.356;6.816;2023-10-13T07:58:44;15.90;99.90
3921;DHT22;1975;49.356;6.816;2023-10-13T08:01:18;15.90;99.90
3921;DHT22;1975;49.356;6.816;2023-10-13T08:03:44;15.90;99.90
3921;DHT22;1975;49.356;6.816;2023-10-13T08:06:10;15.90;99.90
3921;DHT22;1975;49.356;6.816;2023-10-13T08:08:35;15.90;99.90
3921;DHT22;1975;49.356;6.816;2023-10-13T08:11:06;16.00;99.90
3921;DHT22;1975;49.356;6.816;2023-10-13T08:13:55;16.00;99.90
3921;DHT22;1975;49.356;6.816;2023-10-13T08:16:28;16.00;99.90
3921;DHT22;1975;49.356;6.816;2023-10-13T08:19:22;16.00;99.90
3921;DHT22;1975;49.356;6.816;2023-10-13T08:21:57;16.00;99.90
3921;DHT22;1975;49.356;6.816;2023-10-13T08:24:24;16.00;99.90
3921;DHT22;1975;49.356;6.816;2023-10-13T08:26:53;16.00;99.90
3921;DHT22;1975;49.356;6.816;2023-10-13T08:29:37;16.10;99.90
3921;DHT22;1975;49.356;6.816;2023-10-13T08:32:34;16.10;99.90
3921;DHT22;1975;49.356;6.816;2023-10-13T08:35:19;16.10;99.90
3921;DHT22;1975;49.356;6.816;2023-10-13T08:37:59;16.10;99.90
3921;DHT22;1975;49.356;6.816;2023-10-13T08:40:28;16.10;99.90
3921;DHT22;1975;49.356;6.816;2023-10-13T08:43:21;16.10;99.90
3921;DHT22;1975;49.356;6.816;2023-10-13T08:45:48;16.10;99.90
3921;DHT22;1975;49.356;6.816;2023-10-13T08:48:14;16.10;99.90
3921;DHT22;1975;49.356;6.816;2023-10-13T08:50:45;16.10;99.90
3921;DHT22;1975;49.356;6.816;2023-10-13T08:53:18;16.10;99.90
3921;DHT22;1975;49.356;6.816;2023-10-13T08:56:02;16.10;99.90
3921;DHT22;1975;49.356;6.816;2023-10-13T08:58:56;16.10;99.90
3921;DHT22;1975;49.356;6.816;2023-10-13T09:01:34;16.20;99.90
3921;DHT22;1975;49.356;6.816;2023-10-13T09:04:17;16.20;99.90
3921;DHT22;1975;49.356;6.816;2023-10-13T09:06:53;16.20;99.90
3921;DHT22;1975;49.356;6.816;2023-10-13T09:12:20;16.20;99.90
3921;DHT22;1975;49.356;6.816;2023-10-13T09:14:51;16.20;99.90
3921;DHT22;1975;49.356;6.816;2023-10-13T09:17:27;16.20;99.90
3921;DHT22;1975;49.356;6.816;2023-10-13T09:19:59;16.20;99.90
3921;DHT22;1975;49.356;6.816;2023-10-13T09:22:25;16.20;99.90
3921;DHT22;1975;49.356;6.816;2023-10-13T09:25:01;16.30;99.90
3921;DHT22;1975;49.356;6.816;2023-10-13T09:27:29;16.30;99.90
3921;DHT22;1975;49.356;6.816;2023-10-13T09:30:13;16.30;99.90
3921;DHT22;1975;49.356;6.816;2023-10-13T09:33:03;16.20;99.90
3921;DHT22;1975;49.356;6.816;2023-10-13T09:35:34;16.30;99.90
3921;DHT22;1975;49.356;6.816;2023-10-13T09:38:02;16.30;99.90
3921;DHT22;1975;49.356;6.816;2023-10-13T09:40:28;16.30;99.90
3921;DHT22;1975;49.356;6.816;2023-10-13T09:43:00;16.30;99.90
3921;DHT22;1975;49.356;6.816;2023-10-13T09:45:31;16.40;99.90
3921;DHT22;1975;49.356;6.816;2023-10-13T09:48:09;16.30;99.90
3921;DHT22;1975;49.356;6.816;2023-10-13T09:50:51;16.30;99.90
3921;DHT22;1975;49.356;6.816;2023-10-13T09:53:22;16.40;99.90
3921;DHT22;1975;49.356;6.816;2023-10-13T09:56:11;16.40;99.90
3921;DHT22;1975;49.356;6.816;2023-10-13T09:58:50;16.40;99.90
3921;DHT22;1975;49.356;6.816;2023-10-13T10:01:37;16.40;99.90
3921;DHT22;1975;49.356;6.816;2023-10-13T10:04:08;16.40;99.90
3921;DHT22;1975;49.356;6.816;2023-10-13T10:06:54;16.40;99.90
3921;DHT22;1975;49.356;6.816;2023-10-13T10:09:26;16.50;99.90
3921;DHT22;1975;49.356;6.816;2023-10-13T10:19:26;16.50;99.90
3921;DHT22;1975;49.356;6.816;2023-10-13T10:22:02;16.50;99.90
3921;DHT22;1975;49.356;6.816;2023-10-13T10:24:42;16.60;99.90
3921;DHT22;1975;49.356;6.816;2023-10-13T10:27:08;16.60;99.90
3921;DHT22;1975;49.356;6.816;2023-10-13T10:29:33;16.60;99.90
3921;DHT22;1975;49.356;6.816;2023-10-13T10:31:59;16.60;99.90
3921;DHT22;1975;49.356;6.816;2023-10-13T10:34:29;16.60;99.90
3921;DHT22;1975;49.356;6.816;2023-10-13T10:36:57;16.60;99.90
3921;DHT22;1975;49.356;6.816;2023-10-13T10:39:33;16.60;99.90
3921;DHT22;1975;49.356;6.816;2023-10-13T10:42:07;16.60;99.90
3921;DHT22;1975;49.356;6.816;2023-10-13T10:44:40;16.60;99.90
3921;DHT22;1975;49.356;6.816;2023-10-13T10:47:11;16.60;99.90
3921;DHT22;1975;49.356;6.816;2023-10-13T10:49:45;16.60;99.90
3921;DHT22;1975;49.356;6.816;2023-10-13T10:52:10;16.70;99.90
3921;DHT22;1975;49.356;6.816;2023-10-13T10:54:44;16.60;99.90
3921;DHT22;1975;49.356;6.816;2023-10-13T10:57:09;16.60;99.90
3921;DHT22;1975;49.356;6.816;2023-10-13T10:59:42;16.70;99.90
3921;DHT22;1975;49.356;6.816;2023-10-13T11:02:08;16.70;99.90
3921;DHT22;1975;49.356;6.816;2023-10-13T11:04:34;16.70;99.90
3921;DHT22;1975;49.356;6.816;2023-10-13T11:07:05;16.70;99.90
3921;DHT22;1975;49.356;6.816;2023-10-13T11:09:32;16.70;99.90
3921;DHT22;1975;49.356;6.816;2023-10-13T11:14:29;16.70;99.90
3921;DHT22;1975;49.356;6.816;2023-10-13T11:16:56;16.80;99.90
3921;DHT22;1975;49.356;6.816;2023-10-13T11:19:38;16.80;99.90
3921;DHT22;1975;49.356;6.816;2023-10-13T11:22:17;16.70;99.90
3921;DHT22;1975;49.356;6.816;2023-10-13T11:25:06;16.80;99.90
3921;DHT22;1975;49.356;6.816;2023-10-13T11:27:35;16.80;99.90
3921;DHT22;1975;49.356;6.816;2023-10-13T11:30:17;16.80;99.90
3921;DHT22;1975;49.356;6.816;2023-10-13T11:33:03;16.80;99.90
3921;DHT22;1975;49.356;6.816;2023-10-13T11:35:31;16.80;99.90
3921;DHT22;1975;49.356;6.816;2023-10-13T11:38:17;16.80;99.90
3921;DHT22;1975;49.356;6.816;2023-10-13T11:40:56;16.90;99.90
3921;DHT22;1975;49.356;6.816;2023-10-13T11:43:49;16.80;99.90
3921;DHT22;1975;49.356;6.816;2023-10-13T11:46:16;16.80;99.90
3921;DHT22;1975;49.356;6.816;2023-10-13T11:48:42;16.90;99.90
3921;DHT22;1975;49.356;6.816;2023-10-13T11:51:13;16.90;99.90
3921;DHT22;1975;49.356;6.816;2023-10-13T11:53:51;16.90;99.90
3921;DHT22;1975;49.356;6.816;2023-10-13T11:56:21;16.90;99.90
3921;DHT22;1975;49.356;6.816;2023-10-13T11:58:46;16.90;99.90
3921;DHT22;1975;49.356;6.816;2023-10-13T12:01:12;17.00;99.90
3921;DHT22;1975;49.356;6.816;2023-10-13T12:03:38;16.90;99.90
3921;DHT22;1975;49.356;6.816;2023-10-13T12:06:22;16.90;99.90
3921;DHT22;1975;49.356;6.816;2023-10-13T12:09:04;17.00;99.90
3921;DHT22;1975;49.356;6.816;2023-10-13T12:11:43;17.00;99.90
3921;DHT22;1975;49.356;6.816;2023-10-13T12:14:12;17.00;99.90
3921;DHT22;1975;49.356;6.816;2023-10-13T12:16:55;17.00;99.90
3921;DHT22;1975;49.356;6.816;2023-10-13T12:19:22;17.00;99.90
3921;DHT22;1975;49.356;6.816;2023-10-13T12:21:52;17.00;99.90
3921;DHT22;1975;49.356;6.816;2023-10-13T12:24:21;17.00;99.90
3921;DHT22;1975;49.356;6.816;2023-10-13T12:27:16;17.10;99.90
3921;DHT22;1975;49.356;6.816;2023-10-13T12:29:47;17.10;99.90
3921;DHT22;1975;49.356;6.816;2023-10-13T12:32:13;17.10;99.90
3921;DHT22;1975;49.356;6.816;2023-10-13T12:34:40;17.10;99.90
3921;DHT22;1975;49.356;6.816;2023-10-13T12:37:23;17.10;99.90
3921;DHT22;1975;49.356;6.816;2023-10-13T12:40:15;17.20;99.90
3921;DHT22;1975;49.356;6.816;2023-10-13T12:43:00;17.20;99.90
3921;DHT22;1975;49.356;6.816;2023-10-13T12:45:45;17.20;99.90
3921;DHT22;1975;49.356;6.816;2023-10-13T12:48:30;17.20;99.90
3921;DHT22;1975;49.356;6.816;2023-10-13T12:51:14;17.20;99.90
3921;DHT22;1975;49.356;6.816;2023-10-13T12:53:52;17.20;99.90
3921;DHT22;1975;49.356;6.816;2023-10-13T12:56:18;17.30;99.90
3921;DHT22;1975;49.356;6.816;2023-10-13T12:58:54;17.30;99.90
3921;DHT22;1975;49.356;6.816;2023-10-13T13:01:22;17.30;99.90
3921;DHT22;1975;49.356;6.816;2023-10-13T13:03:49;17.30;99.90
3921;DHT22;1975;49.356;6.816;2023-10-13T13:06:18;17.40;99.90
3921;DHT22;1975;49.356;6.816;2023-10-13T13:08:53;17.40;99.90
3921;DHT22;1975;49.356;6.816;2023-10-13T13:11:19;17.40;99.90
3921;DHT22;1975;49.356;6.816;2023-10-13T13:13:45;17.40;99.90
3921;DHT22;1975;49.356;6.816;2023-10-13T13:16:14;17.40;99.90
3921;DHT22;1975;49.356;6.816;2023-10-13T13:18:40;17.40;99.90
3921;DHT22;1975;49.356;6.816;2023-10-13T13:21:05;17.40;99.90
3921;DHT22;1975;49.356;6.816;2023-10-13T13:23:38;17.50;99.90
3921;DHT22;1975;49.356;6.816;2023-10-13T13:26:08;17.50;99.90
3921;DHT22;1975;49.356;6.816;2023-10-13T13:28:44;17.50;99.90
3921;DHT22;1975;49.356;6.816;2023-10-13T13:31:09;17.50;99.90
3921;DHT22;1975;49.356;6.816;2023-10-13T13:33:39;17.50;99.90
3921;DHT22;1975;49.356;6.816;2023-10-13T13:36:08;17.50;99.90
3921;DHT22;1975;49.356;6.816;2023-10-13T13:38:39;17.60;99.90
3921;DHT22;1975;49.356;6.816;2023-10-13T13:41:11;17.60;99.90
3921;DHT22;1975;49.356;6.816;2023-10-13T13:43:40;17.60;99.90
3921;DHT22;1975;49.356;6.816;2023-10-13T13:46:17;17.60;99.90
3921;DHT22;1975;49.356;6.816;2023-10-13T13:48:43;17.60;99.90
3921;DHT22;1975;49.356;6.816;2023-10-13T13:51:12;17.80;99.90
3921;DHT22;1975;49.356;6.816;2023-10-13T13:53:40;18.60;99.90
3921;DHT22;1975;49.356;6.816;2023-10-13T13:56:10;19.10;99.90
3921;DHT22;1975;49.356;6.816;2023-10-13T13:58:35;19.40;99.90
3921;DHT22;1975;49.356;6.816;2023-10-13T14:01:03;19.60;99.90
3921;DHT22;1975;49.356;6.816;2023-10-13T14:03:40;19.70;99.90
3921;DHT22;1975;49.356;6.816;2023-10-13T14:06:18;20.00;99.90
3921;DHT22;1975;49.356;6.816;2023-10-13T14:08:48;20.40;99.90
3921;DHT22;1975;49.356;6.816;2023-10-13T14:11:14;20.30;99.90
3921;DHT22;1975;49.356;6.816;2023-10-13T14:13:50;20.40;99.90
3921;DHT22;1975;49.356;6.816;2023-10-13T14:16:21;20.50;99.90
3921;DHT22;1975;49.356;6.816;2023-10-13T14:18:48;20.30;99.90
3921;DHT22;1975;49.356;6.816;2023-10-13T14:21:14;20.40;99.90
3921;DHT22;1975;49.356;6.816;2023-10-13T14:23:49;20.40;99.90
3921;DHT22;1975;49.356;6.816;2023-10-13T14:26:14;20.30;99.90
3921;DHT22;1975;49.356;6.816;2023-10-13T14:28:45;20.20;99.90
3921;DHT22;1975;49.356;6.816;2023-10-13T14:31:33;20.40;99.90
3921;DHT22;1975;49.356;6.816;2023-10-13T14:33:59;20.40;99.90
3921;DHT22;1975;49.356;6.816;2023-10-13T14:36:24;20.40;99.90
3921;DHT22;1975;49.356;6.816;2023-10-13T14:38:54;20.40;99.90
3921;DHT22;1975;49.356;6.816;2023-10-13T14:41:19;20.50;99.90
3921;DHT22;1975;49.356;6.816;2023-10-13T14:43:45;20.60;99.90
3921;DHT22;1975;49.356;6.816;2023-10-13T14:46:19;20.60;99.90
3921;DHT22;1975;49.356;6.816;2023-10-13T14:48:53;20.60;99.90
3921;DHT22;1975;49.356;6.816;2023-10-13T14:51:19;20.60;99.90
3921;DHT22;1975;49.356;6.816;2023-10-13T14:53:45;20.70;99.90
3921;DHT22;1975;49.356;6.816;2023-10-13T14:58:36;20.70;99.90
3921;DHT22;1975;49.356;6.816;2023-10-13T15:01:02;20.80;99.90
3921;DHT22;1975;49.356;6.816;2023-10-13T15:03:35;20.80;99.90
3921;DHT22;1975;49.356;6.816;2023-10-13T15:06:03;20.80;99.90
3921;DHT22;1975;49.356;6.816;2023-10-13T15:08:28;20.70;99.90
3921;DHT22;1975;49.356;6.816;2023-10-13T15:10:54;20.70;99.90
3921;DHT22;1975;49.356;6.816;2023-10-13T15:13:19;20.60;99.90
3921;DHT22;1975;49.356;6.816;2023-10-13T15:15:46;20.60;99.90
3921;DHT22;1975;49.356;6.816;2023-10-13T15:18:11;20.60;99.90
3921;DHT22;1975;49.356;6.816;2023-10-13T15:20:40;20.60;99.90
3921;DHT22;1975;49.356;6.816;2023-10-13T15:23:09;20.60;99.90
3921;DHT22;1975;49.356;6.816;2023-10-13T15:25:40;20.60;99.90
3921;DHT22;1975;49.356;6.816;2023-10-13T15:28:14;20.70;99.90
3921;DHT22;1975;49.356;6.816;2023-10-13T15:30:43;20.70;99.90
3921;DHT22;1975;49.356;6.816;2023-10-13T15:33:10;20.60;99.90
3921;DHT22;1975;49.356;6.816;2023-10-13T15:35:40;20.60;99.90
3921;DHT22;1975;49.356;6.816;2023-10-13T15:38:08;20.50;99.90
3921;DHT22;1975;49.356;6.816;2023-10-13T15:40:39;20.60;99.90
3921;DHT22;1975;49.356;6.816;2023-10-13T15:43:07;20.70;99.90
3921;DHT22;1975;49.356;6.816;2023-10-13T15:45:32;20.60;99.90
3921;DHT22;1975;49.356;6.816;2023-10-13T15:48:04;20.70;99.90
3921;DHT22;1975;49.356;6.816;2023-10-13T15:50:35;20.80;99.90
3921;DHT22;1975;49.356;6.816;2023-10-13T15:53:04;20.70;99.90
3921;DHT22;1975;49.356;6.816;2023-10-13T15:55:30;20.60;99.90
3921;DHT22;1975;49.356;6.816;2023-10-13T15:57:59;20.60;99.90
3921;DHT22;1975;49.356;6.816;2023-10-13T16:00:25;20.60;99.90
3921;DHT22;1975;49.356;6.816;2023-10-13T16:02:53;20.60;99.90
3921;DHT22;1975;49.356;6.816;2023-10-13T16:05:20;20.60;99.90
3921;DHT22;1975;49.356;6.816;2023-10-13T16:07:51;20.60;99.90
3921;DHT22;1975;49.356;6.816;2023-10-13T16:10:17;20.60;99.90
3921;DHT22;1975;49.356;6.816;2023-10-13T16:12:46;20.60;99.90
3921;DHT22;1975;49.356;6.816;2023-10-13T16:15:11;20.60;99.90
3921;DHT22;1975;49.356;6.816;2023-10-13T16:17:42;20.60;99.90
3921;DHT22;1975;49.356;6.816;2023-10-13T16:20:09;20.70;99.90
3921;DHT22;1975;49.356;6.816;2023-10-13T16:22:47;20.70;99.90
3921;DHT22;1975;49.356;6.816;2023-10-13T16:25:13;20.60;99.90
3921;DHT22;1975;49.356;6.816;2023-10-13T16:27:39;20.60;99.90
3921;DHT22;1975;49.356;6.816;2023-10-13T16:30:10;20.70;99.90
3921;DHT22;1975;49.356;6.816;2023-10-13T16:32:43;20.60;99.90
3921;DHT22;1975;49.356;6.816;2023-10-13T16:35:16;20.70;99.90
3921;DHT22;1975;49.356;6.816;2023-10-13T16:37:46;20.60;99.90
3921;DHT22;1975;49.356;6.816;2023-10-13T16:40:15;20.60;99.90
3921;DHT22;1975;49.356;6.816;2023-10-13T16:42:41;20.60;99.90
3921;DHT22;1975;49.356;6.816;2023-10-13T16:45:06;20.60;99.90
3921;DHT22;1975;49.356;6.816;2023-10-13T16:47:44;20.60;99.90
3921;DHT22;1975;49.356;6.816;2023-10-13T16:50:10;20.60;99.90
3921;DHT22;1975;49.356;6.816;2023-10-13T16:52:36;20.60;99.90